Tropical Cyclones
[Index]
Main Index Home Page Stock Weather Photos Extreme Storms Discussion Storm News and Storm Chasing Reports Tropical Cyclones / Hurricanes / Typhoons Weather Data and Links Wild Fires / Bushfires Weather Observation Techniques Weather Picture Catalogue Tornado Pictures and Reports Stock Video Footage and DVDs for sale
Season 1998-1999 Tropical Cyclone 199921 Track Map
Season 1998-1999 Summaries (Operational Data): [AU] [SIO] [SPAC] [SH]
<<- Previous TC | 1998-1999 Season | Next TC ->>

click for intensity scale information  Lat/long Grid: Show Hide

 Date Labels: Show Hide

Operational Tropical Cyclone Data : JTWC Advisories

Name: 199921
Number: 9921

11 Feb 1999 12:00 UTC to 17 Feb 1999 00:00 UTC

    date/time    lat    long     hPa   cat  kts
1999-02-11 12   18.4    38.4                 20          
1999-02-11 18   18.5    39.4    1002         23          
1999-02-12 00   18.5    39.5    1004         20          
1999-02-12 06   18.7    39.7    1005         20          
1999-02-12 12   19.4    39.5    1003         20          
1999-02-12 18   20.3    38.8    1000         25          
1999-02-13 00   21.0    38.3    1000         25          
1999-02-13 06   21.6    38.0     998         28          
1999-02-13 12   22.1    37.9     996         30          
1999-02-13 18   22.5    38.1     995         32          
1999-02-14 00   22.7    38.7     994         33          
1999-02-14 06   22.8    39.2     994         33          
1999-02-14 12   22.6    40.1     994         33          
1999-02-14 18   21.8    40.8     995         32          
1999-02-15 00   20.5    41.0     996         30          
1999-02-15 06   19.8    40.7     998         28          
1999-02-15 12   19.3    40.3    1000         25          
1999-02-15 18   18.7    40.1    1000         25          
1999-02-16 00   18.2    39.4    1002         20          
1999-02-16 06   18.3    39.1    1004         20          
1999-02-16 12   18.6    38.6    1005         20          
1999-02-16 18   18.9    38.0    1005         20          
1999-02-17 00   19.2    37.5    1006         15          
Winds are 10-min average.

Tropical cyclone tracks developed by Michael Bath using operational warnings and advisories and Google Maps.


[Australian Severe Weather index] [Copyright Notice] [Email Contacts] [Search This Site] [Privacy Policy]
Document: tropical_cyclone_199921.htm Updated: 28 May 2013